Time;durP1;ratioP1;P1;durP2;ratioP2;P2;SDS_P1;SDS_P2;PMS_P1;PMS_P2;Temp;Humidity;BMP_temperature;BMP_pressure;BME280_temperature;BME280_humidity;BME280_pressure;Samples;Min_cycle;Max_cycle;Signal;HPM_P1;HPM_P2
2021/10/20 08:35:58;;;;;;;1.93;1.80;;;;;;;14.97;81.63;98725.41;5180264;27;20671;-79
2021/10/20 08:38:25;;;;;;;2.50;1.30;;;;;;;15.23;79.65;98723.25;5163665;27;38771;-78
2021/10/20 08:40:55;;;;;;;3.73;1.90;;;;;;;15.41;78.34;98727.06;5181955;27;41849;-80
2021/10/20 08:43:23;;;;;;;1.93;1.67;;;;;;;15.63;76.35;98704.75;5177640;27;43103;-81
2021/10/20 08:45:51;;;;;;;2.80;2.07;;;;;;;15.85;74.27;98714.44;5174388;27;41690;-80
2021/10/20 08:48:21;;;;;;;2.10;1.73;;;;;;;16.43;71.64;98710.19;5189803;27;38881;-79
2021/10/20 08:50:51;;;;;;;1.67;1.47;;;;;;;16.73;69.69;98722.66;5190607;27;40152;-78
2021/10/20 08:53:21;;;;;;;1.77;1.63;;;;;;;16.92;68.20;98715.66;5152547;27;42523;-78
2021/10/20 08:55:50;;;;;;;1.67;1.37;;;;;;;16.91;68.14;98704.13;5168607;27;43425;-78
2021/10/20 08:58:19;;;;;;;1.50;1.40;;;;;;;17.00;65.89;98713.13;5168182;27;39816;-79
2021/10/20 09:00:47;;;;;;;2.20;1.80;;;;;;;17.18;65.94;98711.47;5169297;27;40800;-78
2021/10/20 09:03:15;;;;;;;1.67;1.57;;;;;;;17.30;64.51;98694.28;5167907;27;42823;-78
2021/10/20 09:05:43;;;;;;;2.70;1.77;;;;;;;17.45;64.23;98713.41;5168523;27;42985;-79
2021/10/20 09:08:11;;;;;;;1.43;1.30;;;;;;;17.48;63.79;98708.59;5167470;27;39938;-79
2021/10/20 09:10:40;;;;;;;1.80;1.63;;;;;;;17.58;63.79;98696.03;5168402;27;41736;-80
2021/10/20 09:13:08;;;;;;;1.97;1.60;;;;;;;17.84;62.85;98698.13;5167133;27;41645;-78
2021/10/20 09:15:37;;;;;;;5.33;3.13;;;;;;;18.10;62.62;98682.25;5166387;27;42581;-77
2021/10/20 09:18:06;;;;;;;3.07;2.17;;;;;;;18.33;59.19;98694.28;5166842;27;39088;-79
2021/10/20 09:20:36;;;;;;;2.03;1.40;;;;;;;18.49;59.51;98702.53;5150031;27;40452;-79
2021/10/20 09:23:08;;;;;;;2.17;1.60;;;;;;;18.62;58.87;98680.75;5149829;27;41729;-80
2021/10/20 09:25:41;;;;;;;2.00;1.77;;;;;;;18.79;59.81;98663.81;5149883;27;40989;-81
2021/10/20 09:28:11;;;;;;;1.50;1.40;;;;;;;19.11;58.84;98678.56;5149739;27;40039;-84
2021/10/20 09:30:40;;;;;;;1.93;1.50;;;;;;;19.38;59.24;98668.56;5166309;27;40765;-78
2021/10/20 09:33:09;;;;;;;1.50;1.40;;;;;;;19.63;58.35;98660.72;5167572;27;42896;-78
2021/10/20 09:35:37;;;;;;;1.50;1.30;;;;;;;19.85;58.04;98652.13;5166560;27;42469;-76
2021/10/20 09:38:06;;;;;;;2.43;1.60;;;;;;;20.08;57.92;98647.03;5167544;27;39926;-75
2021/10/20 09:40:37;;;;;;;1.83;1.70;;;;;;;20.36;55.97;98644.97;5166062;27;42803;-80
2021/10/20 09:43:07;;;;;;;1.40;1.30;;;;;;;20.66;54.37;98646.22;5168000;27;43779;-80
2021/10/20 09:45:37;;;;;;;1.70;1.57;;;;;;;20.92;52.73;98656.88;5180658;27;42071;-77
2021/10/20 09:48:16;;;;;;;1.97;1.40;;;;;;;20.98;52.75;98646.31;5151756;27;38803;-77
2021/10/20 09:51:00;;;;;;;1.93;1.60;;;;;;;21.02;53.36;98644.94;5153183;27;41693;-78
2021/10/20 09:53:29;;;;;;;1.50;1.40;;;;;;;20.88;52.72;98647.47;5152324;27;41874;-81
2021/10/20 09:55:58;;;;;;;1.63;1.40;;;;;;;20.85;54.41;98643.25;5154409;27;42958;-80
2021/10/20 09:58:27;;;;;;;1.83;1.50;;;;;;;20.87;54.10;98638.56;5152713;27;39481;-75
2021/10/20 10:00:55;;;;;;;1.70;1.33;;;;;;;20.85;54.60;98645.09;5135269;27;41279;-77
2021/10/20 10:03:24;;;;;;;1.83;1.57;;;;;;;20.77;54.97;98643.25;5151507;27;42127;-77
2021/10/20 10:05:51;;;;;;;1.67;1.43;;;;;;;20.61;55.92;98624.38;5153789;27;42056;-77
2021/10/20 10:08:19;;;;;;;2.73;1.77;;;;;;;20.76;55.99;98630.81;5151690;27;38711;-82
2021/10/20 10:10:47;;;;;;;1.63;1.50;;;;;;;20.89;55.27;98623.09;5154140;27;41621;-82
2021/10/20 10:13:20;;;;;;;2.87;1.90;;;;;;;21.01;55.87;98634.38;5151538;27;43723;-78
2021/10/20 10:15:50;;;;;;;2.27;1.70;;;;;;;21.05;53.99;98639.22;5163552;27;42277;-77
2021/10/20 10:18:19;;;;;;;2.37;1.70;;;;;;;21.05;53.10;98654.53;5131189;27;40277;-78
2021/10/20 10:20:47;;;;;;;1.50;1.30;;;;;;;20.97;53.02;98638.41;5122894;27;40980;-77
2021/10/20 10:23:21;;;;;;;2.43;2.23;;;;;;;20.99;53.36;98641.75;5150962;27;41637;-77
2021/10/20 10:25:58;;;;;;;1.97;1.50;;;;;;;20.99;53.44;98639.91;5146707;27;41216;-77
2021/10/20 10:28:31;;;;;;;9.00;5.20;;;;;;;20.98;52.86;98624.78;5132886;27;40687;-78
2021/10/20 10:31:05;;;;;;;4.27;2.80;;;;;;;20.92;52.59;98633.50;5153097;27;41881;-78
2021/10/20 10:33:38;;;;;;;2.30;2.10;;;;;;;20.80;52.82;98610.59;5133930;27;41604;-81
2021/10/20 10:36:10;;;;;;;1.73;1.60;;;;;;;20.85;51.62;98621.72;5153421;27;42434;-78
2021/10/20 10:38:40;;;;;;;1.30;1.17;;;;;;;20.90;51.64;98605.06;5151204;27;38808;-78
2021/10/20 10:41:19;;;;;;;1.30;1.20;;;;;;;20.93;51.46;98605.56;5153839;27;41448;-82
2021/10/20 10:44:26;;;;;;;1.57;1.47;;;;;;;21.03;52.08;98600.00;5152045;27;43434;-81
2021/10/20 10:47:05;;;;;;;1.20;1.10;;;;;;;21.14;50.93;98592.44;5153284;27;42038;-81
2021/10/20 10:49:35;;;;;;;1.40;1.30;;;;;;;21.20;50.18;98599.03;5130810;27;40021;-79
2021/10/20 10:52:09;;;;;;;1.20;1.10;;;;;;;21.22;49.77;98591.63;5132407;27;44060;-79
2021/10/20 10:54:38;;;;;;;1.70;1.20;;;;;;;21.39;49.80;98590.59;5144105;27;42816;-80
2021/10/20 10:57:13;;;;;;;2.10;1.37;;;;;;;21.60;49.94;98587.38;5134289;27;41114;-80
2021/10/20 10:59:53;;;;;;;1.30;1.20;;;;;;;22.02;51.04;98572.75;5152115;27;40088;-79
2021/10/20 11:02:40;;;;;;;1.50;1.40;;;;;;;22.31;49.85;98594.53;5151986;27;41781;-81
2021/10/20 11:05:09;;;;;;;1.43;1.30;;;;;;;22.28;49.43;98570.59;5152608;27;42922;-80
2021/10/20 11:07:37;;;;;;;2.17;1.20;;;;;;;22.36;49.31;98584.06;5135102;27;42073;-78
2021/10/20 11:10:06;;;;;;;1.53;1.20;;;;;;;22.39;48.32;98593.66;5151186;27;38779;-78
2021/10/20 11:12:34;;;;;;;1.57;1.47;;;;;;;22.52;47.61;98583.94;5153008;27;42637;-80
2021/10/20 11:15:01;;;;;;;1.37;1.20;;;;;;;22.74;48.19;98582.31;5151870;27;42877;-77
2021/10/20 11:17:32;;;;;;;3.07;2.63;;;;;;;23.25;47.25;98569.91;5133181;27;41172;-77
2021/10/20 11:20:07;;;;;;;1.93;1.73;;;;;;;24.25;45.00;98577.63;5134202;27;40036;-79
2021/10/20 11:22:35;;;;;;;1.60;1.47;;;;;;;24.75;44.83;98594.84;5134469;27;41888;-81
2021/10/20 11:25:06;;;;;;;1.40;1.30;;;;;;;24.87;44.69;98574.34;5129868;27;42802;-82
2021/10/20 11:27:37;;;;;;;1.20;1.10;;;;;;;25.19;43.52;98576.56;5113110;27;42168;-76
2021/10/20 11:30:06;;;;;;;1.30;1.20;;;;;;;26.39;39.42;98600.75;5147271;27;39028;-84
2021/10/20 11:32:35;;;;;;;1.50;1.40;;;;;;;26.41;39.29;98599.50;5152914;27;41790;-82
2021/10/20 11:35:05;;;;;;;3.03;1.63;;;;;;;26.52;39.23;98595.34;5149101;27;41496;-79
2021/10/20 11:37:35;;;;;;;1.37;1.00;;;;;;;26.21;39.48;98587.66;5152564;27;43199;-78
2021/10/20 11:40:04;;;;;;;2.37;1.87;;;;;;;25.79;40.28;98583.28;5151658;27;39878;-79
2021/10/20 11:42:33;;;;;;;1.20;1.10;;;;;;;25.52;39.84;98592.25;5134086;27;41575;-79
2021/10/20 11:45:04;;;;;;;1.20;1.10;;;;;;;25.17;40.50;98578.63;5149762;27;42849;-76
2021/10/20 11:47:32;;;;;;;2.77;1.23;;;;;;;24.85;40.87;98568.31;5168030;27;43026;-84
2021/10/20 11:50:00;;;;;;;1.67;1.00;;;;;;;24.42;40.81;98560.16;5133622;27;40071;-83
2021/10/20 11:52:33;;;;;;;1.10;1.10;;;;;;;24.29;42.30;98541.88;5134485;27;40366;-84
2021/10/20 11:55:02;;;;;;;0.90;0.90;;;;;;;24.11;41.65;98551.44;5150709;27;43422;-79
2021/10/20 11:57:30;;;;;;;1.00;0.90;;;;;;;23.98;41.98;98565.63;5151581;27;42986;-77
2021/10/20 11:59:58;;;;;;;1.20;1.00;;;;;;;23.71;41.86;98559.00;5133113;27;38507;-77
2021/10/20 12:02:31;;;;;;;1.37;1.27;;;;;;;23.41;42.60;98541.06;5133120;27;40643;-79
2021/10/20 12:04:59;;;;;;;1.20;1.10;;;;;;;23.05;43.47;98539.03;5149647;27;42759;-76
2021/10/20 12:07:30;;;;;;;1.27;1.17;;;;;;;22.86;43.44;98526.91;5151960;27;42105;-77
2021/10/20 12:10:02;;;;;;;1.03;1.00;;;;;;;22.80;44.26;98516.81;5149914;27;38344;-78
2021/10/20 12:12:30;;;;;;;1.63;1.53;;;;;;;22.78;44.95;98502.66;5151705;27;42728;-77
2021/10/20 12:14:59;;;;;;;1.30;1.20;;;;;;;22.73;44.99;98505.03;5130198;27;42813;-77
2021/10/20 12:17:29;;;;;;;1.77;1.30;;;;;;;22.87;44.81;98495.34;5129620;27;42445;-75
2021/10/20 12:19:59;;;;;;;1.67;1.20;;;;;;;23.03;44.52;98489.75;5125440;27;40081;-78
2021/10/20 12:22:28;;;;;;;1.63;1.33;;;;;;;23.62;43.10;98501.47;5128446;27;40557;-76
2021/10/20 12:25:00;;;;;;;1.57;1.47;;;;;;;24.31;42.49;98507.34;5144523;27;42777;-77
2021/10/20 12:27:29;;;;;;;1.63;1.53;;;;;;;25.82;39.25;98496.09;5150859;27;42230;-81
2021/10/20 12:29:59;;;;;;;1.40;1.30;;;;;;;26.29;38.35;98502.53;5149102;27;39819;-83
2021/10/20 12:32:28;;;;;;;1.27;1.17;;;;;;;26.72;38.10;98495.72;5133575;27;42145;-80
2021/10/20 12:34:58;;;;;;;1.60;1.50;;;;;;;26.24;38.59;98500.41;5128448;27;42926;-80
2021/10/20 12:37:30;;;;;;;0.90;0.90;;;;;;;25.55;38.99;98499.66;5130156;27;43003;-79
2021/10/20 12:39:59;;;;;;;1.90;1.23;;;;;;;24.95;40.28;98471.31;5144202;27;40049;-78
2021/10/20 12:42:26;;;;;;;1.13;1.10;;;;;;;24.41;41.12;98463.72;5149352;27;41848;-80
2021/10/20 12:45:00;;;;;;;1.27;1.20;;;;;;;24.03;42.47;98448.72;5131802;27;42870;-78
2021/10/20 12:47:30;;;;;;;1.10;1.00;;;;;;;23.76;43.28;98453.81;5151577;27;42438;-77
2021/10/20 12:50:05;;;;;;;2.00;1.50;;;;;;;23.50;43.76;98442.63;5150462;27;39581;-81
2021/10/20 12:52:37;;;;;;;1.70;1.43;;;;;;;23.33;44.12;98417.69;5151407;27;41864;-80
2021/10/20 12:55:06;;;;;;;0.90;0.90;;;;;;;23.31;44.60;98419.72;5133152;27;42788;-81
2021/10/20 12:57:33;;;;;;;1.30;1.20;;;;;;;23.34;44.93;98415.81;5151006;27;40976;-82
2021/10/20 13:00:22;;;;;;;1.17;1.07;;;;;;;24.47;43.07;98400.69;5149746;27;38707;-79
2021/10/20 13:02:51;;;;;;;1.53;1.30;;;;;;;26.22;40.92;98420.19;5132879;27;42103;-79
2021/10/20 13:05:18;;;;;;;1.03;1.00;;;;;;;26.43;38.95;98439.09;5127904;27;42595;-78
2021/10/20 13:07:47;;;;;;;1.30;1.20;;;;;;;26.26;40.23;98424.19;5128234;27;42313;-79
2021/10/20 13:10:19;;;;;;;1.50;1.40;;;;;;;26.16;40.15;98416.44;5131629;27;39292;-77
2021/10/20 13:12:49;;;;;;;1.20;1.10;;;;;;;25.61;39.73;98422.94;5150288;27;41700;-79
2021/10/20 13:15:17;;;;;;;2.10;1.30;;;;;;;25.22;40.85;98415.44;5149402;27;43267;-79
2021/10/20 13:17:46;;;;;;;1.20;1.10;;;;;;;24.98;40.94;98411.31;5150787;27;42182;-80
2021/10/20 13:20:16;;;;;;;3.33;1.30;;;;;;;25.01;41.88;98408.19;5146253;27;38563;-81
2021/10/20 13:22:44;;;;;;;1.53;1.20;;;;;;;24.91;42.24;98399.56;5136816;27;41740;-81
2021/10/20 13:25:13;;;;;;;1.50;1.20;;;;;;;25.72;41.23;98401.50;5131667;27;42166;-79
2021/10/20 13:27:41;;;;;;;3.03;1.67;;;;;;;25.73;40.46;98415.91;5140674;27;41797;-82
2021/10/20 13:30:12;;;;;;;1.40;1.30;;;;;;;25.31;41.27;98390.66;5136418;27;38738;-82
2021/10/20 13:32:39;;;;;;;1.30;1.20;;;;;;;25.16;42.02;98392.66;5136274;27;41014;-79
2021/10/20 13:35:09;;;;;;;1.20;1.10;;;;;;;25.03;42.00;98395.28;5153845;27;42725;-80
2021/10/20 13:37:37;;;;;;;2.17;1.63;;;;;;;24.91;42.11;98400.41;5171094;27;44272;-79
2021/10/20 13:40:05;;;;;;;1.00;1.00;;;;;;;24.96;42.14;98397.97;5152515;27;40282;-79
2021/10/20 13:42:33;;;;;;;1.47;1.37;;;;;;;24.67;42.62;98396.28;5154175;27;41196;-81
2021/10/20 13:45:04;;;;;;;1.30;1.20;;;;;;;24.44;43.19;98382.13;5151451;27;43567;-79
2021/10/20 13:47:31;;;;;;;1.40;1.17;;;;;;;24.25;44.19;98371.97;5135049;27;41221;-77
2021/10/20 13:49:59;;;;;;;1.70;1.47;;;;;;;23.78;44.43;98373.34;5152219;27;39874;-77
2021/10/20 13:52:28;;;;;;;1.53;1.10;;;;;;;23.45;45.51;98377.50;5135320;27;41073;-77
2021/10/20 13:54:55;;;;;;;1.87;1.60;;;;;;;23.14;46.15;98367.75;5151549;27;42933;-77
2021/10/20 13:57:23;;;;;;;1.50;1.40;;;;;;;22.87;47.08;98365.72;5153527;27;43190;-77
2021/10/20 13:59:51;;;;;;;1.50;1.40;;;;;;;22.68;47.30;98353.56;5152766;27;40055;-78
2021/10/20 14:02:19;;;;;;;1.70;1.57;;;;;;;22.50;48.17;98329.59;5131474;27;41835;-77
2021/10/20 14:04:47;;;;;;;2.37;1.40;;;;;;;22.38;48.70;98336.47;5146804;27;42761;-80
2021/10/20 14:07:16;;;;;;;1.47;1.37;;;;;;;22.29;48.83;98324.09;5152501;27;42630;-81
2021/10/20 14:09:47;;;;;;;1.77;1.40;;;;;;;22.25;49.42;98321.97;5150646;27;40358;-82
2021/10/20 14:12:14;;;;;;;1.37;1.27;;;;;;;22.27;49.37;98319.91;5152462;27;41824;-79
2021/10/20 14:14:42;;;;;;;3.67;1.50;;;;;;;22.24;49.48;98309.50;5134809;27;41393;-79
2021/10/20 14:17:11;;;;;;;1.63;1.53;;;;;;;22.23;49.79;98307.81;5153780;27;43182;-81
2021/10/20 14:19:38;;;;;;;2.17;1.20;;;;;;;22.23;50.15;98307.81;5151034;27;39368;-77
2021/10/20 14:22:06;;;;;;;1.83;1.40;;;;;;;21.88;49.99;98260.75;5151135;27;40545;-76
2021/10/20 14:24:33;;;;;;;1.30;1.20;;;;;;;22.10;50.12;98286.84;5132880;27;41842;-77
2021/10/20 14:27:02;;;;;;;1.60;1.23;;;;;;;22.02;50.53;98293.16;5134355;27;43470;-79
2021/10/20 14:29:31;;;;;;;1.30;1.20;;;;;;;21.98;50.64;98274.81;5151211;27;40609;-80
2021/10/20 14:31:59;;;;;;;1.57;1.40;;;;;;;21.84;50.64;98244.94;5135107;27;40585;-79
2021/10/20 14:34:26;;;;;;;1.60;1.40;;;;;;;21.98;50.82;98282.88;5150903;27;41689;-81
2021/10/20 14:36:54;;;;;;;1.40;1.27;;;;;;;21.94;50.81;98287.81;5151840;27;43013;-79
2021/10/20 14:39:21;;;;;;;1.50;1.30;;;;;;;21.85;51.15;98275.41;5150859;27;39906;-79
2021/10/20 14:41:49;;;;;;;3.90;1.67;;;;;;;21.78;51.55;98269.91;5153112;27;41561;-79
2021/10/20 14:44:20;;;;;;;1.70;1.60;;;;;;;21.72;51.97;98272.50;5133374;27;42015;-79
2021/10/20 14:46:47;;;;;;;1.57;1.13;;;;;;;21.60;51.49;98258.59;5130680;27;42198;-82
2021/10/20 14:49:15;;;;;;;1.30;1.20;;;;;;;21.46;52.45;98248.59;5149529;27;39929;-79
2021/10/20 14:51:43;;;;;;;1.63;1.20;;;;;;;21.36;52.48;98245.31;5151461;27;42360;-80
2021/10/20 14:54:11;;;;;;;1.37;1.27;;;;;;;21.38;52.69;98251.38;5149287;27;41172;-79
2021/10/20 14:56:39;;;;;;;2.37;1.07;;;;;;;21.26;52.67;98252.78;5152023;27;41898;-77
2021/10/20 14:59:06;;;;;;;1.53;1.43;;;;;;;21.16;53.23;98266.41;5133955;27;40502;-81
2021/10/20 15:01:36;;;;;;;1.30;1.20;;;;;;;21.09;53.31;98270.84;5153178;27;42350;-81
2021/10/20 15:04:06;;;;;;;1.60;1.13;;;;;;;21.05;53.22;98253.38;5133703;27;43242;-80
2021/10/20 15:06:38;;;;;;;1.60;1.50;;;;;;;21.02;53.56;98254.56;5152224;27;41089;-80
2021/10/20 15:09:05;;;;;;;1.60;1.37;;;;;;;20.93;54.07;98239.47;5133604;27;38849;-81
2021/10/20 15:11:33;;;;;;;1.50;1.40;;;;;;;20.89;54.38;98250.78;5150778;27;41882;-82
2021/10/20 15:14:01;;;;;;;2.37;1.97;;;;;;;20.75;54.53;98234.34;5149564;27;42602;-81
2021/10/20 15:16:28;;;;;;;1.77;1.67;;;;;;;20.58;55.73;98231.91;5134365;27;41135;-81
2021/10/20 15:18:58;;;;;;;1.40;1.30;;;;;;;20.35;56.75;98207.56;5149142;27;40621;-78
2021/10/20 15:21:29;;;;;;;1.80;1.50;;;;;;;20.23;56.82;98193.66;5132672;27;40671;-82
2021/10/20 15:23:57;;;;;;;1.53;1.43;;;;;;;20.23;56.52;98204.41;5149128;27;41718;-78
2021/10/20 15:26:25;;;;;;;1.60;1.37;;;;;;;20.36;56.11;98215.50;5144791;27;42384;-78
2021/10/20 15:28:55;;;;;;;1.53;1.40;;;;;;;20.37;56.89;98209.13;5148801;27;39213;-79
2021/10/20 15:31:25;;;;;;;1.47;1.37;;;;;;;20.25;57.55;98207.78;5172995;27;42655;-80
2021/10/20 15:33:53;;;;;;;2.17;1.53;;;;;;;20.08;58.26;98190.00;5144251;27;41836;-83
2021/10/20 15:36:22;;;;;;;1.63;1.40;;;;;;;19.80;59.98;98169.91;5149974;27;41687;-77
2021/10/20 15:38:50;;;;;;;1.50;1.40;;;;;;;19.61;60.89;98166.59;5131243;27;39174;-81
2021/10/20 15:41:19;;;;;;;1.60;1.50;;;;;;;19.52;61.17;98164.94;5132356;27;42172;-81
2021/10/20 15:43:47;;;;;;;1.70;1.57;;;;;;;19.44;61.44;98161.34;5165134;27;42819;-82
2021/10/20 15:46:16;;;;;;;2.83;1.60;;;;;;;19.38;61.40;98162.88;5150100;27;42581;-79
2021/10/20 15:48:44;;;;;;;1.40;1.30;;;;;;;19.36;61.64;98167.56;5149570;27;39926;-77
2021/10/20 15:51:14;;;;;;;2.73;1.67;;;;;;;19.32;62.08;98161.69;5133634;27;41688;-85
2021/10/20 15:53:45;;;;;;;2.10;1.50;;;;;;;19.47;61.49;98179.81;5150302;27;43009;-81
2021/10/20 15:56:12;;;;;;;1.53;1.30;;;;;;;19.52;61.15;98172.97;5143952;27;41250;-76
2021/10/20 15:58:43;;;;;;;1.50;1.33;;;;;;;19.56;61.25;98168.94;5146925;27;39150;-76
2021/10/20 16:01:12;;;;;;;3.77;2.33;;;;;;;19.60;61.56;98161.38;5147539;27;41576;-76
2021/10/20 16:03:43;;;;;;;1.90;1.63;;;;;;;19.57;61.08;98157.19;5148428;27;41998;-76
2021/10/20 16:06:11;;;;;;;2.10;1.60;;;;;;;19.59;61.03;98157.84;5131371;27;42192;-76
2021/10/20 16:08:39;;;;;;;1.20;1.10;;;;;;;19.62;60.82;98167.44;5163921;27;40057;-77
2021/10/20 16:11:08;;;;;;;1.70;1.40;;;;;;;19.60;61.17;98164.91;5149336;27;41585;-76
2021/10/20 16:13:36;;;;;;;1.70;1.40;;;;;;;19.62;61.33;98160.22;5155337;27;44015;-75
2021/10/20 16:16:05;;;;;;;1.80;1.70;;;;;;;19.62;61.34;98156.69;5161537;27;43111;-77
2021/10/20 16:18:32;;;;;;;2.03;1.50;;;;;;;19.58;62.05;98152.66;5149701;27;39542;-76
2021/10/20 16:21:00;;;;;;;3.43;2.07;;;;;;;19.59;61.46;98160.53;5148191;27;40412;-76
2021/10/20 16:23:28;;;;;;;1.60;1.50;;;;;;;19.49;61.80;98151.81;5144402;27;42833;-76
2021/10/20 16:25:56;;;;;;;2.00;1.90;;;;;;;19.58;61.91;98169.59;5131364;27;42321;-75
2021/10/20 16:28:28;;;;;;;2.60;1.73;;;;;;;19.58;62.11;98174.97;5143075;27;39005;-76
2021/10/20 16:30:55;;;;;;;2.67;1.70;;;;;;;19.58;62.12;98161.53;5134306;27;41650;-76
2021/10/20 16:33:23;;;;;;;1.77;1.40;;;;;;;19.60;62.40;98170.28;5146259;27;43476;-75
2021/10/20 16:35:50;;;;;;;1.73;1.63;;;;;;;19.64;62.29;98177.00;5161213;27;42249;-76
2021/10/20 16:38:18;;;;;;;1.70;1.60;;;;;;;19.62;62.28;98173.63;5146655;27;39945;-76
2021/10/20 16:40:49;;;;;;;1.97;1.73;;;;;;;19.58;62.54;98177.66;5125336;27;40865;-75
2021/10/20 16:43:17;;;;;;;1.77;1.67;;;;;;;19.50;63.22;98169.63;5129465;27;43169;-76
2021/10/20 16:45:47;;;;;;;2.10;2.00;;;;;;;19.53;63.10;98179.19;5131257;27;41111;-76
2021/10/20 16:48:15;;;;;;;1.57;1.43;;;;;;;19.50;63.41;98166.09;5130100;27;38771;-76
2021/10/20 16:50:43;;;;;;;2.27;2.07;;;;;;;19.52;63.30;98164.09;5148068;27;41811;-76
2021/10/20 16:53:11;;;;;;;3.77;1.90;;;;;;;19.54;63.68;98160.19;5165079;27;42684;-78
2021/10/20 16:55:38;;;;;;;1.80;1.70;;;;;;;19.53;63.71;98157.72;5150315;27;43543;-77
2021/10/20 16:58:07;;;;;;;2.10;1.80;;;;;;;19.52;63.23;98154.19;5154311;27;39797;-75
2021/10/20 17:00:36;;;;;;;1.53;1.37;;;;;;;19.48;63.67;98146.59;5134915;27;40611;-76
2021/10/20 17:03:06;;;;;;;1.63;1.50;;;;;;;19.51;63.79;98149.81;5153009;27;42926;-76
2021/10/20 17:05:34;;;;;;;1.63;1.53;;;;;;;19.48;63.87;98144.75;5139989;27;42572;-76
2021/10/20 17:08:02;;;;;;;1.87;1.77;;;;;;;19.51;64.07;98144.44;5164309;27;39872;-77
2021/10/20 17:10:29;;;;;;;2.20;2.00;;;;;;;19.48;64.49;98136.69;5165576;27;42534;-77
2021/10/20 17:12:57;;;;;;;1.90;1.60;;;;;;;19.47;64.15;98140.38;5156491;27;42839;-78
2021/10/20 17:15:25;;;;;;;2.00;1.77;;;;;;;19.48;64.47;98143.91;5167628;27;42232;-76
2021/10/20 17:17:55;;;;;;;1.83;1.73;;;;;;;19.50;64.42;98142.75;5152990;27;40862;-77
2021/10/20 17:20:25;;;;;;;1.73;1.63;;;;;;;19.47;64.48;98118.06;5151993;27;40793;-76
2021/10/20 17:22:54;;;;;;;3.37;1.70;;;;;;;19.42;64.57;98113.19;5168475;27;41784;-77
2021/10/20 17:25:21;;;;;;;1.60;1.50;;;;;;;19.50;64.36;98121.28;5155935;27;42049;-76
2021/10/20 17:27:49;;;;;;;2.13;1.80;;;;;;;19.50;64.25;98121.28;5164007;27;38998;-77
2021/10/20 17:30:17;;;;;;;4.37;2.23;;;;;;;19.48;64.48;98123.25;5164489;27;41967;-77
2021/10/20 17:32:48;;;;;;;1.63;1.53;;;;;;;19.47;64.74;98115.38;5158792;27;42677;-77
2021/10/20 17:35:18;;;;;;;2.00;1.80;;;;;;;19.42;64.67;98107.81;5168421;27;42113;-77
2021/10/20 17:37:48;;;;;;;1.80;1.70;;;;;;;19.39;65.04;98100.13;5152061;27;40070;-77
2021/10/20 17:40:20;;;;;;;2.00;1.80;;;;;;;19.33;65.51;98098.09;5163832;27;41524;-77
2021/10/20 17:42:50;;;;;;;1.93;1.73;;;;;;;19.29;65.45;98092.22;5158058;27;42630;-76
2021/10/20 17:45:21;;;;;;;2.57;2.37;;;;;;;19.25;65.42;98084.69;5136802;27;41516;-76
2021/10/20 17:47:48;;;;;;;2.13;1.80;;;;;;;19.22;65.40;98068.91;5148727;27;40259;-76
2021/10/20 17:50:16;;;;;;;2.20;1.90;;;;;;;19.22;65.38;98076.97;5151450;27;41744;-76
2021/10/20 17:52:44;;;;;;;2.07;1.70;;;;;;;19.20;66.10;98076.28;5168443;27;42761;-77
2021/10/20 17:55:13;;;;;;;1.70;1.60;;;;;;;19.15;65.57;98062.56;5152485;27;42068;-76
2021/10/20 17:57:40;;;;;;;1.50;1.40;;;;;;;19.14;65.89;98055.50;5152195;27;39976;-76
2021/10/20 18:00:10;;;;;;;2.00;1.70;;;;;;;19.16;65.99;98066.91;5130399;27;41463;-77
2021/10/20 18:02:41;;;;;;;1.33;1.23;;;;;;;19.18;66.11;98065.72;5117105;27;41671;-76
2021/10/20 18:05:11;;;;;;;2.10;1.70;;;;;;;19.15;65.83;98070.63;5134270;27;42564;-77
2021/10/20 18:07:42;;;;;;;1.60;1.50;;;;;;;19.17;66.07;98071.25;5157541;27;40853;-76
2021/10/20 18:10:11;;;;;;;2.17;1.63;;;;;;;19.06;66.05;98040.22;5161489;27;41058;-77
2021/10/20 18:12:41;;;;;;;2.10;1.90;;;;;;;19.09;66.04;98047.94;5163479;27;41676;-77
2021/10/20 18:15:11;;;;;;;1.43;1.33;;;;;;;19.17;66.10;98049.78;5133533;27;41943;-77
2021/10/20 18:17:40;;;;;;;1.90;1.70;;;;;;;19.16;66.16;98053.50;5151845;27;40256;-77
2021/10/20 18:20:09;;;;;;;1.97;1.73;;;;;;;19.02;66.23;98041.59;5150768;27;42056;-77
2021/10/20 18:22:37;;;;;;;2.47;2.20;;;;;;;19.04;66.31;98044.13;5153581;27;43807;-77
2021/10/20 18:25:06;;;;;;;2.20;1.90;;;;;;;18.98;66.69;98038.41;5170151;27;42518;-77
2021/10/20 18:27:34;;;;;;;1.70;1.50;;;;;;;18.99;67.29;98045.47;5158672;27;40224;-77
2021/10/20 18:30:05;;;;;;;2.30;1.80;;;;;;;19.04;67.24;98049.50;5162267;27;40950;-77
2021/10/20 18:32:33;;;;;;;1.70;1.47;;;;;;;18.89;67.62;98031.38;5140249;27;41724;-77
2021/10/20 18:35:03;;;;;;;2.20;1.97;;;;;;;18.81;67.95;98039.41;5150593;27;42969;-77
2021/10/20 18:37:31;;;;;;;2.17;2.00;;;;;;;18.67;68.95;98037.38;5150460;27;39237;-77
2021/10/20 18:40:00;;;;;;;2.27;2.07;;;;;;;18.52;70.48;98036.34;5149870;27;41868;-77
2021/10/20 18:42:27;;;;;;;2.50;2.20;;;;;;;18.18;71.30;98021.19;5151129;27;43896;-77
2021/10/20 18:44:55;;;;;;;2.20;2.00;;;;;;;18.20;71.68;98039.78;5151514;27;42256;-77
2021/10/20 18:47:27;;;;;;;2.60;2.00;;;;;;;18.04;72.79;98032.56;5117332;27;40054;-76
2021/10/20 18:49:54;;;;;;;2.60;2.00;;;;;;;18.02;72.72;98053.31;5129722;27;42244;-75
2021/10/20 18:52:23;;;;;;;2.87;2.57;;;;;;;17.84;72.91;98040.03;5128497;27;43104;-76
2021/10/20 18:54:50;;;;;;;2.53;2.33;;;;;;;17.88;73.42;98062.81;5111869;27;41217;-75
2021/10/20 18:57:19;;;;;;;1.83;1.73;;;;;;;17.45;74.79;98012.84;5112518;27;39013;-76
2021/10/20 18:59:47;;;;;;;2.77;2.43;;;;;;;17.68;75.19;98058.69;5150000;27;42394;-77
2021/10/20 19:02:15;;;;;;;2.37;2.17;;;;;;;17.52;75.28;98035.34;5148537;27;43651;-76
2021/10/20 19:04:44;;;;;;;2.20;1.87;;;;;;;17.58;75.87;98053.41;5148841;27;42766;-76
2021/10/20 19:07:12;;;;;;;2.57;2.30;;;;;;;17.29;77.06;98023.50;5132394;27;39116;-76
2021/10/20 19:09:40;;;;;;;2.30;2.10;;;;;;;17.48;76.47;98036.63;5149246;27;40590;-76
2021/10/20 19:12:09;;;;;;;2.60;2.20;;;;;;;17.41;77.68;98030.25;5150218;27;42557;-76
2021/10/20 19:14:37;;;;;;;2.60;2.30;;;;;;;17.30;78.39;98017.16;5149008;27;42930;-75
2021/10/20 19:17:07;;;;;;;2.63;2.43;;;;;;;17.32;78.22;98027.66;5131236;27;38768;-76
2021/10/20 19:19:35;;;;;;;2.30;2.10;;;;;;;17.29;78.05;98028.00;5130673;27;40692;-74
2021/10/20 19:22:05;;;;;;;2.40;2.20;;;;;;;17.19;78.74;98012.03;5132903;27;43116;-76
2021/10/20 19:24:32;;;;;;;4.23;2.43;;;;;;;17.23;78.78;98010.72;5147966;27;41147;-75
2021/10/20 19:27:00;;;;;;;2.30;2.10;;;;;;;17.21;78.94;98036.81;5168091;27;39454;-75
2021/10/20 19:29:27;;;;;;;2.40;2.20;;;;;;;17.19;79.29;98028.09;5151329;27;41888;-76
2021/10/20 19:31:55;;;;;;;3.43;2.00;;;;;;;17.16;79.69;98023.91;5132452;27;43370;-77
2021/10/20 19:34:22;;;;;;;2.07;1.83;;;;;;;17.15;79.89;98029.44;5132121;27;41673;-76
2021/10/20 19:36:50;;;;;;;3.43;2.17;;;;;;;17.05;80.89;98018.00;5167497;27;40613;-76
2021/10/20 19:39:19;;;;;;;1.67;1.57;;;;;;;16.99;80.63;98026.63;5132350;27;42200;-76
2021/10/20 19:41:47;;;;;;;1.70;1.60;;;;;;;16.95;80.91;98009.19;5151029;27;42626;-76
2021/10/20 19:44:14;;;;;;;1.60;1.50;;;;;;;16.81;81.74;98005.28;5149256;27;42255;-76
2021/10/20 19:46:42;;;;;;;1.73;1.60;;;;;;;16.80;81.43;98006.28;5150441;27;39646;-76
2021/10/20 19:49:12;;;;;;;1.70;1.60;;;;;;;16.80;81.45;97980.38;5148965;27;41879;-77
2021/10/20 19:51:40;;;;;;;1.43;1.33;;;;;;;16.78;81.57;97977.03;5150537;27;42886;-76
2021/10/20 19:54:08;;;;;;;1.13;0.97;;;;;;;16.76;81.94;97965.63;5151056;27;43570;-76
2021/10/20 19:56:40;;;;;;;1.07;1.00;;;;;;;16.64;82.07;97940.16;5149165;27;40256;-76
2021/10/20 19:59:08;;;;;;;1.60;1.50;;;;;;;16.73;81.70;97965.09;5148996;27;41739;-77
2021/10/20 20:01:36;;;;;;;1.50;1.40;;;;;;;16.74;81.75;97958.75;5131943;27;41874;-75
2021/10/20 20:04:09;;;;;;;2.40;1.67;;;;;;;16.76;81.50;97978.16;5149832;27;43628;-76
2021/10/20 20:06:37;;;;;;;1.90;1.40;;;;;;;16.79;81.12;97975.19;5151489;27;42045;-76
2021/10/20 20:09:06;;;;;;;1.50;1.40;;;;;;;16.80;81.01;97968.84;5149243;27;40495;-75
2021/10/20 20:11:34;;;;;;;4.53;1.47;;;;;;;16.80;82.32;97924.22;5132822;27;41570;-76
2021/10/20 20:14:05;;;;;;;1.83;1.73;;;;;;;16.72;83.35;97918.81;5151536;27;42143;-76
2021/10/20 20:16:34;;;;;;;1.57;1.47;;;;;;;16.71;82.93;97930.50;5150874;27;39889;-76
2021/10/20 20:19:01;;;;;;;2.17;1.63;;;;;;;16.67;81.97;97920.28;5149373;27;41195;-76